WZZ125 LZIB-LZKZ
Flight info
| Callsign | WZZ125 |
|---|---|
| Flight time | 0h 30m |
| Altitude | 21000 |
| Route | NIT N190 TAKOS |
| Aircraft | A320/M-SDE3FGHIRWY/LB1 |
Departure
| Time | 2026-04-28 07:44 |
|---|---|
| Airport | M. R. Štefánik Airport (LZIB) |
Arrival
| Time | 2026-04-28 08:15 |
|---|---|
| Airport | Košice International Airport (LZKZ) |
| Time | Latitude | Longitude | Altitude | Speed | Heading |
|---|---|---|---|---|---|
| 2026-04-28 07:24 | 48.16942 | 17.20105 | 436 ft | 0 kts | 314° |
| 2026-04-28 07:36 | 48.16934 | 17.20118 | 428 ft | 26 kts | 311° |
| 2026-04-28 07:36 | 48.16918 | 17.20150 | 424 ft | 27 kts | 296° |
| 2026-04-28 07:37 | 48.16912 | 17.20185 | 424 ft | 31 kts | 251° |
| 2026-04-28 07:37 | 48.16916 | 17.20200 | 424 ft | 27 kts | 223° |
| 2026-04-28 07:39 | 48.16912 | 17.20194 | 426 ft | 3 kts | 223° |
| 2026-04-28 07:39 | 48.16897 | 17.20172 | 423 ft | 6 kts | 224° |
| 2026-04-28 07:39 | 48.16851 | 17.20148 | 433 ft | 9 kts | 160° |
| 2026-04-28 07:39 | 48.16795 | 17.20228 | 433 ft | 14 kts | 136° |
| 2026-04-28 07:40 | 48.16718 | 17.20336 | 427 ft | 16 kts | 149° |
| 2026-04-28 07:40 | 48.16613 | 17.20250 | 430 ft | 21 kts | 220° |
| 2026-04-28 07:40 | 48.16497 | 17.20102 | 447 ft | 22 kts | 220° |
| 2026-04-28 07:40 | 48.16377 | 17.19950 | 450 ft | 23 kts | 222° |
| 2026-04-28 07:41 | 48.16269 | 17.19809 | 454 ft | 20 kts | 218° |
| 2026-04-28 07:41 | 48.16174 | 17.19809 | 456 ft | 14 kts | 139° |
| 2026-04-28 07:41 | 48.16162 | 17.19830 | 456 ft | 0 kts | 131° |
| 2026-04-28 07:42 | 48.16151 | 17.19849 | 456 ft | 7 kts | 131° |
| 2026-04-28 07:42 | 48.16109 | 17.19921 | 456 ft | 10 kts | 131° |
| 2026-04-28 07:42 | 48.16115 | 17.19993 | 454 ft | 10 kts | 28° |
| 2026-04-28 07:42 | 48.16135 | 17.20015 | 454 ft | 0 kts | 44° |
| 2026-04-28 07:43 | 48.16143 | 17.20026 | 453 ft | 9 kts | 44° |
| 2026-04-28 07:44 | 48.16407 | 17.20404 | 433 ft | 96 kts | 44° |
| 2026-04-28 07:44 | 48.17062 | 17.21352 | 424 ft | 161 kts | 44° |
| 2026-04-28 07:44 | 48.17886 | 17.22573 | 1109 ft | 168 kts | 45° |
| 2026-04-28 07:44 | 48.18737 | 17.23827 | 1956 ft | 178 kts | 46° |
| 2026-04-28 07:45 | 48.19662 | 17.25162 | 2360 ft | 194 kts | 44° |
| 2026-04-28 07:45 | 48.20702 | 17.26653 | 2634 ft | 220 kts | 45° |
| 2026-04-28 07:45 | 48.21769 | 17.28448 | 3055 ft | 242 kts | 57° |
| 2026-04-28 07:45 | 48.22509 | 17.30839 | 3456 ft | 266 kts | 75° |
| 2026-04-28 07:46 | 48.22818 | 17.33678 | 3947 ft | 284 kts | 82° |
| 2026-04-28 07:46 | 48.23070 | 17.36547 | 5184 ft | 271 kts | 82° |
| 2026-04-28 07:46 | 48.23321 | 17.39343 | 6190 ft | 271 kts | 80° |
| 2026-04-28 07:46 | 48.23648 | 17.42160 | 7014 ft | 276 kts | 77° |
| 2026-04-28 07:47 | 48.24031 | 17.45006 | 7797 ft | 281 kts | 76° |
| 2026-04-28 07:47 | 48.24437 | 17.47900 | 8558 ft | 286 kts | 76° |
| 2026-04-28 07:47 | 48.24851 | 17.50843 | 9328 ft | 291 kts | 76° |
| 2026-04-28 07:47 | 48.25267 | 17.53845 | 10085 ft | 297 kts | 76° |
| 2026-04-28 07:48 | 48.25693 | 17.56961 | 10467 ft | 316 kts | 76° |
| 2026-04-28 07:48 | 48.26149 | 17.60313 | 10679 ft | 337 kts | 76° |
| 2026-04-28 07:48 | 48.26615 | 17.63771 | 11186 ft | 346 kts | 76° |
| 2026-04-28 07:48 | 48.27091 | 17.67345 | 11840 ft | 350 kts | 76° |
| 2026-04-28 07:49 | 48.27565 | 17.70955 | 12480 ft | 355 kts | 76° |
| 2026-04-28 07:49 | 48.28042 | 17.74612 | 13127 ft | 359 kts | 76° |
| 2026-04-28 07:49 | 48.28524 | 17.78307 | 13781 ft | 363 kts | 76° |
| 2026-04-28 07:49 | 48.29010 | 17.82052 | 14371 ft | 367 kts | 76° |
| 2026-04-28 07:50 | 48.29502 | 17.85837 | 14955 ft | 371 kts | 76° |
| 2026-04-28 07:50 | 48.30001 | 17.89652 | 15526 ft | 374 kts | 76° |
| 2026-04-28 07:50 | 48.30505 | 17.93504 | 16086 ft | 377 kts | 76° |
| 2026-04-28 07:50 | 48.31011 | 17.97385 | 16658 ft | 380 kts | 76° |
| 2026-04-28 07:51 | 48.31518 | 18.01307 | 17217 ft | 384 kts | 76° |
| 2026-04-28 07:51 | 48.32026 | 18.05260 | 17787 ft | 387 kts | 76° |
| 2026-04-28 07:51 | 48.32538 | 18.09253 | 18340 ft | 391 kts | 76° |
| 2026-04-28 07:51 | 48.33047 | 18.13233 | 18827 ft | 394 kts | 76° |
| 2026-04-28 07:52 | 48.33573 | 18.17355 | 19303 ft | 398 kts | 76° |
| 2026-04-28 07:52 | 48.34089 | 18.21420 | 19768 ft | 402 kts | 76° |
| 2026-04-28 07:52 | 48.34617 | 18.25570 | 20241 ft | 406 kts | 76° |
| 2026-04-28 07:52 | 48.35150 | 18.29764 | 20702 ft | 410 kts | 76° |
| 2026-04-28 07:53 | 48.35686 | 18.34001 | 21087 ft | 414 kts | 76° |
| 2026-04-28 07:53 | 48.36222 | 18.38264 | 21184 ft | 416 kts | 75° |
| 2026-04-28 07:53 | 48.36759 | 18.42548 | 21185 ft | 417 kts | 76° |
| 2026-04-28 07:53 | 48.37295 | 18.46830 | 21189 ft | 417 kts | 76° |
| 2026-04-28 07:54 | 48.37829 | 18.51113 | 21195 ft | 417 kts | 76° |
| 2026-04-28 07:54 | 48.38362 | 18.55408 | 21195 ft | 417 kts | 76° |
| 2026-04-28 07:54 | 48.38886 | 18.59644 | 21194 ft | 417 kts | 76° |
| 2026-04-28 07:54 | 48.39415 | 18.63947 | 21193 ft | 417 kts | 76° |
| 2026-04-28 07:55 | 48.39943 | 18.68239 | 21198 ft | 417 kts | 76° |
| 2026-04-28 07:55 | 48.40473 | 18.72559 | 21200 ft | 425 kts | 76° |
| 2026-04-28 07:55 | 48.41021 | 18.77018 | 21182 ft | 442 kts | 76° |
| 2026-04-28 07:55 | 48.41574 | 18.81519 | 21208 ft | 456 kts | 76° |
| 2026-04-28 07:56 | 48.42173 | 18.86412 | 21190 ft | 470 kts | 76° |
| 2026-04-28 07:56 | 48.42767 | 18.91305 | 21193 ft | 480 kts | 76° |
| 2026-04-28 07:56 | 48.43365 | 18.96269 | 21182 ft | 483 kts | 76° |
| 2026-04-28 07:56 | 48.43959 | 19.01259 | 21189 ft | 485 kts | 76° |
| 2026-04-28 07:57 | 48.44557 | 19.06293 | 21185 ft | 491 kts | 76° |
| 2026-04-28 07:57 | 48.45159 | 19.11371 | 21190 ft | 493 kts | 76° |
| 2026-04-28 07:57 | 48.45758 | 19.16452 | 21184 ft | 493 kts | 76° |
| 2026-04-28 07:57 | 48.46351 | 19.21474 | 21187 ft | 493 kts | 76° |
| 2026-04-28 07:58 | 48.46953 | 19.26562 | 21182 ft | 493 kts | 76° |
| 2026-04-28 07:58 | 48.47553 | 19.31641 | 21184 ft | 493 kts | 76° |
| 2026-04-28 07:58 | 48.48150 | 19.36735 | 21184 ft | 493 kts | 77° |
| 2026-04-28 07:58 | 48.48742 | 19.41826 | 21176 ft | 493 kts | 77° |
| 2026-04-28 07:59 | 48.49332 | 19.46926 | 21175 ft | 493 kts | 77° |
| 2026-04-28 07:59 | 48.49921 | 19.52012 | 21175 ft | 493 kts | 77° |
| 2026-04-28 07:59 | 48.50510 | 19.57110 | 21170 ft | 493 kts | 77° |
| 2026-04-28 07:59 | 48.51094 | 19.62210 | 21177 ft | 492 kts | 77° |
| 2026-04-28 08:00 | 48.51669 | 19.67275 | 21164 ft | 483 kts | 77° |
| 2026-04-28 08:00 | 48.52213 | 19.72155 | 21172 ft | 460 kts | 77° |
| 2026-04-28 08:00 | 48.52731 | 19.76815 | 21050 ft | 441 kts | 77° |
| 2026-04-28 08:00 | 48.53225 | 19.81247 | 20921 ft | 425 kts | 76° |
| 2026-04-28 08:01 | 48.53708 | 19.85560 | 20669 ft | 407 kts | 76° |
| 2026-04-28 08:01 | 48.54175 | 19.89736 | 19976 ft | 398 kts | 76° |
| 2026-04-28 08:01 | 48.54635 | 19.93824 | 19220 ft | 391 kts | 76° |
| 2026-04-28 08:01 | 48.55084 | 19.97845 | 18455 ft | 386 kts | 77° |
| 2026-04-28 08:02 | 48.55525 | 20.01810 | 17621 ft | 380 kts | 77° |
| 2026-04-28 08:02 | 48.55954 | 20.05665 | 16796 ft | 375 kts | 77° |
| 2026-04-28 08:02 | 48.56384 | 20.09572 | 15973 ft | 369 kts | 77° |
| 2026-04-28 08:02 | 48.56800 | 20.13369 | 15193 ft | 364 kts | 77° |
| 2026-04-28 08:03 | 48.57202 | 20.17053 | 14611 ft | 355 kts | 77° |
| 2026-04-28 08:03 | 48.57599 | 20.20705 | 14037 ft | 347 kts | 77° |
| 2026-04-28 08:03 | 48.57980 | 20.24238 | 13586 ft | 335 kts | 78° |
| 2026-04-28 08:03 | 48.58097 | 20.27697 | 13193 ft | 326 kts | 91° |
| 2026-04-28 08:04 | 48.57809 | 20.31032 | 12829 ft | 315 kts | 96° |
| 2026-04-28 08:04 | 48.57479 | 20.34242 | 12493 ft | 305 kts | 96° |
| 2026-04-28 08:04 | 48.57160 | 20.37396 | 12138 ft | 305 kts | 96° |
| 2026-04-28 08:04 | 48.56844 | 20.40570 | 11778 ft | 305 kts | 96° |
| 2026-04-28 08:05 | 48.56526 | 20.43743 | 11422 ft | 306 kts | 96° |
| 2026-04-28 08:05 | 48.56206 | 20.46920 | 11067 ft | 307 kts | 96° |
| 2026-04-28 08:05 | 48.55884 | 20.50104 | 10708 ft | 307 kts | 96° |
| 2026-04-28 08:05 | 48.55560 | 20.53295 | 10358 ft | 307 kts | 96° |
| 2026-04-28 08:06 | 48.55235 | 20.56479 | 10015 ft | 306 kts | 96° |
| 2026-04-28 08:06 | 48.54908 | 20.59647 | 9660 ft | 305 kts | 96° |
| 2026-04-28 08:06 | 48.54586 | 20.62748 | 9355 ft | 303 kts | 96° |
| 2026-04-28 08:06 | 48.54261 | 20.65873 | 9071 ft | 299 kts | 96° |
| 2026-04-28 08:07 | 48.53934 | 20.69035 | 8731 ft | 299 kts | 97° |
| 2026-04-28 08:07 | 48.53618 | 20.72111 | 8446 ft | 295 kts | 97° |
| 2026-04-28 08:07 | 48.53309 | 20.75124 | 8121 ft | 294 kts | 97° |
| 2026-04-28 08:07 | 48.52993 | 20.78162 | 7799 ft | 292 kts | 97° |
| 2026-04-28 08:08 | 48.52678 | 20.81176 | 7432 ft | 289 kts | 97° |
| 2026-04-28 08:08 | 48.52364 | 20.84159 | 6887 ft | 286 kts | 97° |
| 2026-04-28 08:08 | 48.52053 | 20.87103 | 6349 ft | 283 kts | 97° |
| 2026-04-28 08:08 | 48.51747 | 20.90005 | 5861 ft | 277 kts | 97° |
| 2026-04-28 08:09 | 48.51447 | 20.92854 | 5483 ft | 275 kts | 97° |
| 2026-04-28 08:09 | 48.51152 | 20.95699 | 5117 ft | 274 kts | 95° |
| 2026-04-28 08:09 | 48.51082 | 20.98549 | 4742 ft | 271 kts | 87° |
| 2026-04-28 08:09 | 48.51113 | 21.01389 | 4393 ft | 272 kts | 86° |
| 2026-04-28 08:10 | 48.51154 | 21.04219 | 4021 ft | 265 kts | 86° |
| 2026-04-28 08:10 | 48.51199 | 21.06953 | 3650 ft | 256 kts | 86° |
| 2026-04-28 08:10 | 48.51246 | 21.09595 | 3285 ft | 249 kts | 87° |
| 2026-04-28 08:10 | 48.51290 | 21.12174 | 2930 ft | 243 kts | 86° |
| 2026-04-28 08:11 | 48.51416 | 21.14666 | 2570 ft | 234 kts | 75° |
| 2026-04-28 08:11 | 48.51986 | 21.16802 | 2492 ft | 205 kts | 57° |
| 2026-04-28 08:11 | 48.52838 | 21.18385 | 2513 ft | 193 kts | 42° |
| 2026-04-28 08:11 | 48.53916 | 21.19548 | 2516 ft | 188 kts | 27° |
| 2026-04-28 08:12 | 48.55054 | 21.20193 | 2524 ft | 162 kts | 15° |
| 2026-04-28 08:12 | 48.56086 | 21.20551 | 2485 ft | 147 kts | 14° |
| 2026-04-28 08:12 | 48.57069 | 21.20894 | 2356 ft | 143 kts | 14° |
| 2026-04-28 08:12 | 48.58026 | 21.21230 | 2206 ft | 140 kts | 15° |
| 2026-04-28 08:13 | 48.58967 | 21.21569 | 2061 ft | 138 kts | 14° |
| 2026-04-28 08:13 | 48.59907 | 21.21898 | 1906 ft | 139 kts | 14° |
| 2026-04-28 08:13 | 48.60846 | 21.22217 | 1702 ft | 139 kts | 13° |
| 2026-04-28 08:13 | 48.61791 | 21.22539 | 1450 ft | 138 kts | 14° |
| 2026-04-28 08:14 | 48.62716 | 21.22867 | 1234 ft | 136 kts | 14° |
| 2026-04-28 08:14 | 48.63647 | 21.23191 | 1062 ft | 137 kts | 13° |
| 2026-04-28 08:14 | 48.64571 | 21.23511 | 884 ft | 135 kts | 13° |
| 2026-04-28 08:14 | 48.65466 | 21.23826 | 770 ft | 122 kts | 14° |
| 2026-04-28 08:15 | 48.66177 | 21.24076 | 756 ft | 82 kts | 12° |
| 2026-04-28 08:15 | 48.66569 | 21.24210 | 759 ft | 36 kts | 13° |
| 2026-04-28 08:15 | 48.66796 | 21.24293 | 762 ft | 33 kts | 13° |
| 2026-04-28 08:15 | 48.67018 | 21.24372 | 761 ft | 33 kts | 14° |
| 2026-04-28 08:16 | 48.67212 | 21.24409 | 757 ft | 21 kts | 328° |
| 2026-04-28 08:16 | 48.67244 | 21.24297 | 758 ft | 1 kts | 281° |
| 2026-04-28 08:16 | 48.67247 | 21.24278 | 757 ft | 3 kts | 283° |
| 2026-04-28 08:16 | 48.67258 | 21.24215 | 759 ft | 10 kts | 285° |
| 2026-04-28 08:17 | 48.67272 | 21.24103 | 758 ft | 12 kts | 280° |
| 2026-04-28 08:17 | 48.67293 | 21.23972 | 755 ft | 14 kts | 287° |
| 2026-04-28 08:17 | 48.67329 | 21.23885 | 755 ft | 9 kts | 327° |
| 2026-04-28 08:17 | 48.67336 | 21.23859 | 759 ft | 0 kts | 258° |
| 2026-04-28 08:18 | 48.67333 | 21.23855 | 755 ft | 1 kts | 239° |
| 2026-04-28 08:18 | 48.67332 | 21.23854 | 755 ft | 0 kts | 239° |